sensor_id;sensor_type;location;lat;lon;timestamp;P1;durP1;ratioP1;P2;durP2;ratioP2
57047;SDS011;42934;54.294;18.598;2022-07-29T00:00:08;6.10;;;3.00;;
57047;SDS011;42934;54.294;18.598;2022-07-29T00:03:00;7.65;;;3.17;;
57047;SDS011;42934;54.294;18.598;2022-07-29T00:05:30;4.78;;;2.95;;
57047;SDS011;42934;54.294;18.598;2022-07-29T00:07:59;6.50;;;3.20;;
57047;SDS011;42934;54.294;18.598;2022-07-29T00:10:28;5.87;;;3.10;;
57047;SDS011;42934;54.294;18.598;2022-07-29T00:12:58;7.95;;;3.30;;
57047;SDS011;42934;54.294;18.598;2022-07-29T00:15:27;6.70;;;2.83;;
57047;SDS011;42934;54.294;18.598;2022-07-29T00:17:57;10.82;;;3.38;;
57047;SDS011;42934;54.294;18.598;2022-07-29T00:20:28;9.98;;;3.13;;
57047;SDS011;42934;54.294;18.598;2022-07-29T00:22:57;9.40;;;3.30;;
57047;SDS011;42934;54.294;18.598;2022-07-29T00:25:26;5.97;;;2.90;;
57047;SDS011;42934;54.294;18.598;2022-07-29T00:27:59;7.60;;;3.20;;
57047;SDS011;42934;54.294;18.598;2022-07-29T00:30:28;7.53;;;3.30;;
57047;SDS011;42934;54.294;18.598;2022-07-29T00:32:59;5.40;;;3.20;;
57047;SDS011;42934;54.294;18.598;2022-07-29T00:35:34;10.38;;;3.45;;
57047;SDS011;42934;54.294;18.598;2022-07-29T00:38:12;10.93;;;3.70;;
57047;SDS011;42934;54.294;18.598;2022-07-29T00:40:43;10.10;;;3.63;;
57047;SDS011;42934;54.294;18.598;2022-07-29T00:45:41;6.47;;;3.67;;
57047;SDS011;42934;54.294;18.598;2022-07-29T00:48:13;7.35;;;3.60;;
57047;SDS011;42934;54.294;18.598;2022-07-29T00:50:42;8.32;;;3.67;;
57047;SDS011;42934;54.294;18.598;2022-07-29T00:53:11;9.73;;;3.97;;
57047;SDS011;42934;54.294;18.598;2022-07-29T00:55:41;6.05;;;3.58;;
57047;SDS011;42934;54.294;18.598;2022-07-29T00:58:11;7.93;;;3.50;;
57047;SDS011;42934;54.294;18.598;2022-07-29T01:00:42;7.13;;;3.45;;
57047;SDS011;42934;54.294;18.598;2022-07-29T01:03:12;9.45;;;3.75;;
57047;SDS011;42934;54.294;18.598;2022-07-29T01:05:42;8.98;;;4.10;;
57047;SDS011;42934;54.294;18.598;2022-07-29T01:08:17;11.25;;;3.80;;
57047;SDS011;42934;54.294;18.598;2022-07-29T01:10:46;10.15;;;3.60;;
57047;SDS011;42934;54.294;18.598;2022-07-29T01:13:17;7.03;;;3.70;;
57047;SDS011;42934;54.294;18.598;2022-07-29T01:15:49;11.15;;;4.03;;
57047;SDS011;42934;54.294;18.598;2022-07-29T01:18:27;6.65;;;3.50;;
57047;SDS011;42934;54.294;18.598;2022-07-29T01:21:20;9.95;;;4.10;;
57047;SDS011;42934;54.294;18.598;2022-07-29T01:27:13;8.13;;;3.65;;
57047;SDS011;42934;54.294;18.598;2022-07-29T01:29:57;10.43;;;3.90;;
57047;SDS011;42934;54.294;18.598;2022-07-29T01:32:33;7.28;;;3.70;;
57047;SDS011;42934;54.294;18.598;2022-07-29T01:35:06;6.28;;;3.67;;
57047;SDS011;42934;54.294;18.598;2022-07-29T01:37:45;6.97;;;3.42;;
57047;SDS011;42934;54.294;18.598;2022-07-29T01:40:19;6.35;;;3.63;;
57047;SDS011;42934;54.294;18.598;2022-07-29T01:42:54;8.18;;;4.03;;
57047;SDS011;42934;54.294;18.598;2022-07-29T01:45:28;6.28;;;3.80;;
57047;SDS011;42934;54.294;18.598;2022-07-29T01:48:06;7.80;;;3.70;;
57047;SDS011;42934;54.294;18.598;2022-07-29T01:50:44;6.82;;;3.83;;
57047;SDS011;42934;54.294;18.598;2022-07-29T01:53:20;7.55;;;3.78;;
57047;SDS011;42934;54.294;18.598;2022-07-29T01:56:03;8.07;;;4.15;;
57047;SDS011;42934;54.294;18.598;2022-07-29T01:58:34;9.63;;;3.67;;
57047;SDS011;42934;54.294;18.598;2022-07-29T02:01:09;8.73;;;3.72;;
57047;SDS011;42934;54.294;18.598;2022-07-29T02:03:41;10.52;;;3.53;;
57047;SDS011;42934;54.294;18.598;2022-07-29T02:06:13;8.70;;;3.92;;
57047;SDS011;42934;54.294;18.598;2022-07-29T02:08:47;6.53;;;3.83;;
57047;SDS011;42934;54.294;18.598;2022-07-29T02:11:19;6.20;;;3.60;;
57047;SDS011;42934;54.294;18.598;2022-07-29T02:13:48;9.65;;;4.20;;
57047;SDS011;42934;54.294;18.598;2022-07-29T02:16:21;7.63;;;4.05;;
57047;SDS011;42934;54.294;18.598;2022-07-29T02:18:54;8.02;;;4.25;;
57047;SDS011;42934;54.294;18.598;2022-07-29T02:21:26;8.10;;;3.85;;
57047;SDS011;42934;54.294;18.598;2022-07-29T02:23:58;8.77;;;4.22;;
57047;SDS011;42934;54.294;18.598;2022-07-29T02:26:29;8.55;;;4.50;;
57047;SDS011;42934;54.294;18.598;2022-07-29T02:29:01;11.73;;;4.32;;
57047;SDS011;42934;54.294;18.598;2022-07-29T02:31:33;7.85;;;4.50;;
57047;SDS011;42934;54.294;18.598;2022-07-29T02:34:05;9.63;;;4.55;;
57047;SDS011;42934;54.294;18.598;2022-07-29T02:36:36;7.95;;;4.10;;
57047;SDS011;42934;54.294;18.598;2022-07-29T02:39:07;7.13;;;3.90;;
57047;SDS011;42934;54.294;18.598;2022-07-29T02:44:10;8.05;;;3.63;;
57047;SDS011;42934;54.294;18.598;2022-07-29T02:46:45;8.05;;;4.03;;
57047;SDS011;42934;54.294;18.598;2022-07-29T02:49:18;8.90;;;3.95;;
57047;SDS011;42934;54.294;18.598;2022-07-29T02:51:58;9.13;;;4.20;;
57047;SDS011;42934;54.294;18.598;2022-07-29T02:54:31;7.68;;;4.20;;
57047;SDS011;42934;54.294;18.598;2022-07-29T02:57:09;10.38;;;4.13;;
57047;SDS011;42934;54.294;18.598;2022-07-29T02:59:44;6.72;;;4.35;;
57047;SDS011;42934;54.294;18.598;2022-07-29T03:02:17;8.55;;;4.00;;
57047;SDS011;42934;54.294;18.598;2022-07-29T03:04:46;6.88;;;3.78;;
57047;SDS011;42934;54.294;18.598;2022-07-29T03:07:18;8.90;;;4.30;;
57047;SDS011;42934;54.294;18.598;2022-07-29T03:09:50;8.05;;;3.78;;
57047;SDS011;42934;54.294;18.598;2022-07-29T03:12:20;6.35;;;3.75;;
57047;SDS011;42934;54.294;18.598;2022-07-29T03:14:50;8.95;;;4.05;;
57047;SDS011;42934;54.294;18.598;2022-07-29T03:17:22;6.95;;;4.10;;
57047;SDS011;42934;54.294;18.598;2022-07-29T03:19:51;6.13;;;4.20;;
57047;SDS011;42934;54.294;18.598;2022-07-29T03:24:51;7.57;;;4.45;;
57047;SDS011;42934;54.294;18.598;2022-07-29T03:27:20;7.20;;;4.10;;
57047;SDS011;42934;54.294;18.598;2022-07-29T03:29:50;9.43;;;4.20;;
57047;SDS011;42934;54.294;18.598;2022-07-29T03:32:19;8.23;;;3.50;;
57047;SDS011;42934;54.294;18.598;2022-07-29T03:34:51;7.88;;;4.00;;
57047;SDS011;42934;54.294;18.598;2022-07-29T03:37:20;10.23;;;4.50;;
57047;SDS011;42934;54.294;18.598;2022-07-29T03:39:50;8.73;;;4.57;;
57047;SDS011;42934;54.294;18.598;2022-07-29T03:42:23;11.48;;;4.65;;
57047;SDS011;42934;54.294;18.598;2022-07-29T03:45:00;6.85;;;4.57;;
57047;SDS011;42934;54.294;18.598;2022-07-29T03:47:35;10.00;;;5.05;;
57047;SDS011;42934;54.294;18.598;2022-07-29T03:50:17;9.23;;;5.32;;
57047;SDS011;42934;54.294;18.598;2022-07-29T03:52:49;10.88;;;5.22;;
57047;SDS011;42934;54.294;18.598;2022-07-29T03:55:18;11.07;;;5.50;;
57047;SDS011;42934;54.294;18.598;2022-07-29T03:57:48;12.38;;;5.55;;
57047;SDS011;42934;54.294;18.598;2022-07-29T04:00:18;10.77;;;5.28;;
57047;SDS011;42934;54.294;18.598;2022-07-29T04:02:49;8.38;;;4.97;;
57047;SDS011;42934;54.294;18.598;2022-07-29T04:05:18;12.80;;;4.97;;
57047;SDS011;42934;54.294;18.598;2022-07-29T04:07:48;9.63;;;5.38;;
57047;SDS011;42934;54.294;18.598;2022-07-29T04:10:17;9.80;;;5.10;;
57047;SDS011;42934;54.294;18.598;2022-07-29T04:12:58;13.77;;;5.50;;
57047;SDS011;42934;54.294;18.598;2022-07-29T04:15:27;10.93;;;5.57;;
57047;SDS011;42934;54.294;18.598;2022-07-29T04:17:59;12.90;;;6.28;;
57047;SDS011;42934;54.294;18.598;2022-07-29T04:20:28;9.80;;;5.57;;
57047;SDS011;42934;54.294;18.598;2022-07-29T04:22:58;8.70;;;5.27;;
57047;SDS011;42934;54.294;18.598;2022-07-29T04:25:27;11.40;;;5.60;;
57047;SDS011;42934;54.294;18.598;2022-07-29T04:27:56;8.65;;;5.40;;
57047;SDS011;42934;54.294;18.598;2022-07-29T04:30:28;12.65;;;5.20;;
57047;SDS011;42934;54.294;18.598;2022-07-29T04:33:01;9.90;;;5.57;;
57047;SDS011;42934;54.294;18.598;2022-07-29T04:35:33;10.40;;;5.68;;
57047;SDS011;42934;54.294;18.598;2022-07-29T04:38:16;10.75;;;5.80;;
57047;SDS011;42934;54.294;18.598;2022-07-29T04:40:45;11.70;;;6.10;;
57047;SDS011;42934;54.294;18.598;2022-07-29T04:43:15;12.48;;;5.38;;
57047;SDS011;42934;54.294;18.598;2022-07-29T04:45:49;10.65;;;5.50;;
57047;SDS011;42934;54.294;18.598;2022-07-29T04:48:20;11.52;;;5.60;;
57047;SDS011;42934;54.294;18.598;2022-07-29T04:50:55;9.15;;;5.53;;
57047;SDS011;42934;54.294;18.598;2022-07-29T04:53:24;10.52;;;5.30;;
57047;SDS011;42934;54.294;18.598;2022-07-29T04:55:53;10.53;;;5.30;;
57047;SDS011;42934;54.294;18.598;2022-07-29T04:58:23;10.07;;;5.10;;
57047;SDS011;42934;54.294;18.598;2022-07-29T05:00:53;6.25;;;3.47;;
57047;SDS011;42934;54.294;18.598;2022-07-29T05:03:23;4.33;;;2.70;;
57047;SDS011;42934;54.294;18.598;2022-07-29T05:05:53;9.90;;;2.90;;
57047;SDS011;42934;54.294;18.598;2022-07-29T05:08:22;6.90;;;3.00;;
57047;SDS011;42934;54.294;18.598;2022-07-29T05:10:51;7.35;;;2.95;;
57047;SDS011;42934;54.294;18.598;2022-07-29T05:13:21;5.97;;;2.63;;
57047;SDS011;42934;54.294;18.598;2022-07-29T05:15:50;3.80;;;2.00;;
57047;SDS011;42934;54.294;18.598;2022-07-29T05:18:19;6.72;;;2.33;;
57047;SDS011;42934;54.294;18.598;2022-07-29T05:20:53;7.07;;;2.67;;
57047;SDS011;42934;54.294;18.598;2022-07-29T05:23:22;4.70;;;2.20;;
57047;SDS011;42934;54.294;18.598;2022-07-29T05:25:52;4.27;;;1.70;;
57047;SDS011;42934;54.294;18.598;2022-07-29T05:28:21;5.18;;;2.00;;
57047;SDS011;42934;54.294;18.598;2022-07-29T05:30:50;7.03;;;2.10;;
57047;SDS011;42934;54.294;18.598;2022-07-29T05:33:20;2.17;;;1.50;;
57047;SDS011;42934;54.294;18.598;2022-07-29T05:36:04;4.72;;;1.45;;
57047;SDS011;42934;54.294;18.598;2022-07-29T05:38:34;2.75;;;1.17;;
57047;SDS011;42934;54.294;18.598;2022-07-29T05:41:04;4.10;;;1.20;;
57047;SDS011;42934;54.294;18.598;2022-07-29T05:43:33;3.10;;;1.25;;
57047;SDS011;42934;54.294;18.598;2022-07-29T05:46:02;4.13;;;1.10;;
57047;SDS011;42934;54.294;18.598;2022-07-29T05:48:32;2.13;;;1.10;;
57047;SDS011;42934;54.294;18.598;2022-07-29T05:51:02;1.77;;;1.00;;
57047;SDS011;42934;54.294;18.598;2022-07-29T05:53:33;3.50;;;0.85;;
57047;SDS011;42934;54.294;18.598;2022-07-29T05:56:03;2.57;;;1.13;;
57047;SDS011;42934;54.294;18.598;2022-07-29T05:58:33;3.08;;;1.10;;
57047;SDS011;42934;54.294;18.598;2022-07-29T06:01:03;5.70;;;1.08;;
57047;SDS011;42934;54.294;18.598;2022-07-29T06:03:32;3.00;;;1.13;;
57047;SDS011;42934;54.294;18.598;2022-07-29T06:06:06;2.75;;;0.73;;
57047;SDS011;42934;54.294;18.598;2022-07-29T06:08:35;2.08;;;0.80;;
57047;SDS011;42934;54.294;18.598;2022-07-29T06:11:05;3.35;;;1.30;;
57047;SDS011;42934;54.294;18.598;2022-07-29T06:13:35;5.47;;;1.73;;
57047;SDS011;42934;54.294;18.598;2022-07-29T06:16:04;6.70;;;1.52;;
57047;SDS011;42934;54.294;18.598;2022-07-29T06:18:34;2.00;;;0.75;;
57047;SDS011;42934;54.294;18.598;2022-07-29T06:21:08;0.80;;;0.70;;
57047;SDS011;42934;54.294;18.598;2022-07-29T06:23:37;0.60;;;0.60;;
57047;SDS011;42934;54.294;18.598;2022-07-29T06:26:07;3.33;;;0.80;;
57047;SDS011;42934;54.294;18.598;2022-07-29T06:28:36;9.25;;;1.05;;
57047;SDS011;42934;54.294;18.598;2022-07-29T06:31:06;2.25;;;1.20;;
57047;SDS011;42934;54.294;18.598;2022-07-29T06:33:36;2.35;;;1.00;;
57047;SDS011;42934;54.294;18.598;2022-07-29T06:36:06;5.65;;;1.17;;
57047;SDS011;42934;54.294;18.598;2022-07-29T06:38:38;0.82;;;0.82;;
57047;SDS011;42934;54.294;18.598;2022-07-29T06:41:17;3.60;;;0.93;;
57047;SDS011;42934;54.294;18.598;2022-07-29T06:43:46;1.77;;;0.93;;
57047;SDS011;42934;54.294;18.598;2022-07-29T06:46:22;1.70;;;1.00;;
57047;SDS011;42934;54.294;18.598;2022-07-29T06:48:52;2.75;;;1.30;;
57047;SDS011;42934;54.294;18.598;2022-07-29T06:51:23;3.25;;;1.10;;
57047;SDS011;42934;54.294;18.598;2022-07-29T06:53:52;2.65;;;1.17;;
57047;SDS011;42934;54.294;18.598;2022-07-29T06:56:29;1.27;;;0.70;;
57047;SDS011;42934;54.294;18.598;2022-07-29T06:59:06;1.33;;;0.60;;
57047;SDS011;42934;54.294;18.598;2022-07-29T07:01:36;1.15;;;0.65;;
57047;SDS011;42934;54.294;18.598;2022-07-29T07:04:07;2.53;;;0.82;;
57047;SDS011;42934;54.294;18.598;2022-07-29T07:06:39;1.17;;;0.70;;
57047;SDS011;42934;54.294;18.598;2022-07-29T07:09:08;0.95;;;0.50;;
57047;SDS011;42934;54.294;18.598;2022-07-29T07:11:38;0.93;;;0.50;;
57047;SDS011;42934;54.294;18.598;2022-07-29T07:14:07;1.25;;;0.55;;
57047;SDS011;42934;54.294;18.598;2022-07-29T07:16:37;2.67;;;0.50;;
57047;SDS011;42934;54.294;18.598;2022-07-29T07:19:06;2.10;;;0.68;;
57047;SDS011;42934;54.294;18.598;2022-07-29T07:21:36;1.23;;;0.50;;
57047;SDS011;42934;54.294;18.598;2022-07-29T07:24:07;0.57;;;0.43;;
57047;SDS011;42934;54.294;18.598;2022-07-29T07:26:36;1.85;;;0.60;;
57047;SDS011;42934;54.294;18.598;2022-07-29T07:29:06;0.82;;;0.60;;
57047;SDS011;42934;54.294;18.598;2022-07-29T07:31:36;0.73;;;0.50;;
57047;SDS011;42934;54.294;18.598;2022-07-29T07:34:06;2.00;;;0.50;;
57047;SDS011;42934;54.294;18.598;2022-07-29T07:36:35;1.33;;;0.50;;
57047;SDS011;42934;54.294;18.598;2022-07-29T07:39:06;0.75;;;0.50;;
57047;SDS011;42934;54.294;18.598;2022-07-29T07:41:36;1.42;;;0.60;;
57047;SDS011;42934;54.294;18.598;2022-07-29T07:44:05;2.40;;;0.60;;
57047;SDS011;42934;54.294;18.598;2022-07-29T07:46:41;3.08;;;0.70;;
57047;SDS011;42934;54.294;18.598;2022-07-29T07:51:40;1.17;;;0.50;;
57047;SDS011;42934;54.294;18.598;2022-07-29T07:54:18;1.27;;;0.45;;
57047;SDS011;42934;54.294;18.598;2022-07-29T07:56:47;1.02;;;0.40;;
57047;SDS011;42934;54.294;18.598;2022-07-29T07:59:19;1.10;;;0.43;;
57047;SDS011;42934;54.294;18.598;2022-07-29T08:01:48;3.90;;;0.68;;
57047;SDS011;42934;54.294;18.598;2022-07-29T08:04:22;2.53;;;0.70;;
57047;SDS011;42934;54.294;18.598;2022-07-29T08:06:54;2.20;;;0.60;;
57047;SDS011;42934;54.294;18.598;2022-07-29T08:09:27;1.30;;;0.40;;
57047;SDS011;42934;54.294;18.598;2022-07-29T08:11:57;2.28;;;0.52;;
57047;SDS011;42934;54.294;18.598;2022-07-29T08:14:29;0.60;;;0.40;;
57047;SDS011;42934;54.294;18.598;2022-07-29T08:19:28;1.05;;;0.50;;
57047;SDS011;42934;54.294;18.598;2022-07-29T08:21:57;1.48;;;0.45;;
57047;SDS011;42934;54.294;18.598;2022-07-29T08:24:28;3.95;;;0.45;;
57047;SDS011;42934;54.294;18.598;2022-07-29T08:27:21;2.03;;;0.40;;
57047;SDS011;42934;54.294;18.598;2022-07-29T08:30:09;0.70;;;0.52;;
57047;SDS011;42934;54.294;18.598;2022-07-29T08:35:20;0.85;;;0.40;;
57047;SDS011;42934;54.294;18.598;2022-07-29T08:37:50;1.65;;;0.60;;
57047;SDS011;42934;54.294;18.598;2022-07-29T08:40:21;2.33;;;0.40;;
57047;SDS011;42934;54.294;18.598;2022-07-29T08:42:59;3.33;;;0.68;;
57047;SDS011;42934;54.294;18.598;2022-07-29T08:45:36;1.25;;;0.50;;
57047;SDS011;42934;54.294;18.598;2022-07-29T08:48:15;0.80;;;0.60;;
57047;SDS011;42934;54.294;18.598;2022-07-29T08:50:46;1.00;;;0.50;;
57047;SDS011;42934;54.294;18.598;2022-07-29T08:53:17;1.70;;;0.52;;
57047;SDS011;42934;54.294;18.598;2022-07-29T08:55:48;0.90;;;0.40;;
57047;SDS011;42934;54.294;18.598;2022-07-29T08:58:18;0.50;;;0.50;;
57047;SDS011;42934;54.294;18.598;2022-07-29T09:00:51;1.55;;;0.40;;
57047;SDS011;42934;54.294;18.598;2022-07-29T09:03:24;8.75;;;0.90;;
57047;SDS011;42934;54.294;18.598;2022-07-29T09:05:58;1.80;;;0.35;;
57047;SDS011;42934;54.294;18.598;2022-07-29T09:08:29;2.55;;;0.47;;
57047;SDS011;42934;54.294;18.598;2022-07-29T09:11:01;1.05;;;0.40;;
57047;SDS011;42934;54.294;18.598;2022-07-29T09:13:31;1.85;;;0.50;;
57047;SDS011;42934;54.294;18.598;2022-07-29T09:16:03;1.90;;;0.47;;
57047;SDS011;42934;54.294;18.598;2022-07-29T09:18:36;7.50;;;0.52;;
57047;SDS011;42934;54.294;18.598;2022-07-29T09:21:11;2.08;;;0.50;;
57047;SDS011;42934;54.294;18.598;2022-07-29T09:24:05;1.10;;;0.50;;
57047;SDS011;42934;54.294;18.598;2022-07-29T09:26:39;1.95;;;0.40;;
57047;SDS011;42934;54.294;18.598;2022-07-29T09:29:11;0.75;;;0.30;;
57047;SDS011;42934;54.294;18.598;2022-07-29T09:31:43;1.23;;;0.50;;
57047;SDS011;42934;54.294;18.598;2022-07-29T09:34:15;1.55;;;0.40;;
57047;SDS011;42934;54.294;18.598;2022-07-29T09:36:49;1.90;;;0.50;;
57047;SDS011;42934;54.294;18.598;2022-07-29T09:39:30;0.60;;;0.30;;
57047;SDS011;42934;54.294;18.598;2022-07-29T09:42:06;2.45;;;0.60;;
57047;SDS011;42934;54.294;18.598;2022-07-29T09:45:10;1.83;;;0.50;;
57047;SDS011;42934;54.294;18.598;2022-07-29T09:52:06;1.38;;;0.60;;
57047;SDS011;42934;54.294;18.598;2022-07-29T09:55:48;1.73;;;0.50;;
57047;SDS011;42934;54.294;18.598;2022-07-29T09:59:10;3.05;;;0.60;;
57047;SDS011;42934;54.294;18.598;2022-07-29T10:01:46;2.53;;;0.57;;
57047;SDS011;42934;54.294;18.598;2022-07-29T10:04:17;1.95;;;0.57;;
57047;SDS011;42934;54.294;18.598;2022-07-29T10:06:55;4.13;;;0.90;;
57047;SDS011;42934;54.294;18.598;2022-07-29T10:09:35;3.10;;;0.57;;
57047;SDS011;42934;54.294;18.598;2022-07-29T10:12:06;1.77;;;0.57;;
57047;SDS011;42934;54.294;18.598;2022-07-29T10:18:48;2.92;;;0.50;;
57047;SDS011;42934;54.294;18.598;2022-07-29T10:21:25;4.53;;;0.70;;
57047;SDS011;42934;54.294;18.598;2022-07-29T10:24:08;2.20;;;0.60;;
57047;SDS011;42934;54.294;18.598;2022-07-29T10:26:47;3.40;;;0.50;;
57047;SDS011;42934;54.294;18.598;2022-07-29T10:29:34;0.73;;;0.40;;
57047;SDS011;42934;54.294;18.598;2022-07-29T10:32:15;1.70;;;0.47;;
57047;SDS011;42934;54.294;18.598;2022-07-29T10:35:06;2.38;;;0.45;;
57047;SDS011;42934;54.294;18.598;2022-07-29T10:40:53;1.35;;;0.52;;
57047;SDS011;42934;54.294;18.598;2022-07-29T10:43:48;0.30;;;0.30;;
57047;SDS011;42934;54.294;18.598;2022-07-29T10:46:20;0.73;;;0.43;;
57047;SDS011;42934;54.294;18.598;2022-07-29T10:51:52;0.82;;;0.50;;
57047;SDS011;42934;54.294;18.598;2022-07-29T10:54:37;2.42;;;0.45;;
57047;SDS011;42934;54.294;18.598;2022-07-29T11:00:31;3.70;;;0.50;;
57047;SDS011;42934;54.294;18.598;2022-07-29T11:06:23;1.40;;;0.35;;
57047;SDS011;42934;54.294;18.598;2022-07-29T11:09:17;1.48;;;0.40;;
57047;SDS011;42934;54.294;18.598;2022-07-29T11:12:01;1.88;;;0.50;;
57047;SDS011;42934;54.294;18.598;2022-07-29T11:17:24;4.07;;;0.50;;
57047;SDS011;42934;54.294;18.598;2022-07-29T11:20:31;2.67;;;0.40;;
57047;SDS011;42934;54.294;18.598;2022-07-29T11:23:21;2.25;;;0.40;;
57047;SDS011;42934;54.294;18.598;2022-07-29T11:28:53;7.47;;;0.70;;
57047;SDS011;42934;54.294;18.598;2022-07-29T11:31:35;0.40;;;0.40;;
57047;SDS011;42934;54.294;18.598;2022-07-29T11:34:16;0.30;;;0.30;;
57047;SDS011;42934;54.294;18.598;2022-07-29T11:42:49;1.92;;;0.40;;
57047;SDS011;42934;54.294;18.598;2022-07-29T11:45:24;1.90;;;0.30;;
57047;SDS011;42934;54.294;18.598;2022-07-29T11:51:04;4.40;;;0.50;;
57047;SDS011;42934;54.294;18.598;2022-07-29T11:53:39;3.55;;;0.40;;
57047;SDS011;42934;54.294;18.598;2022-07-29T11:56:18;1.83;;;0.30;;
57047;SDS011;42934;54.294;18.598;2022-07-29T11:59:02;0.50;;;0.40;;
57047;SDS011;42934;54.294;18.598;2022-07-29T12:01:34;2.72;;;0.38;;
57047;SDS011;42934;54.294;18.598;2022-07-29T12:04:04;1.08;;;0.30;;
57047;SDS011;42934;54.294;18.598;2022-07-29T12:06:33;0.77;;;0.55;;
57047;SDS011;42934;54.294;18.598;2022-07-29T12:09:07;1.83;;;0.40;;
57047;SDS011;42934;54.294;18.598;2022-07-29T12:11:48;0.80;;;0.30;;
57047;SDS011;42934;54.294;18.598;2022-07-29T12:14:32;3.03;;;0.30;;
57047;SDS011;42934;54.294;18.598;2022-07-29T12:17:02;1.95;;;0.60;;
57047;SDS011;42934;54.294;18.598;2022-07-29T12:19:41;3.47;;;0.43;;
57047;SDS011;42934;54.294;18.598;2022-07-29T12:22:11;0.57;;;0.40;;
57047;SDS011;42934;54.294;18.598;2022-07-29T12:25:07;0.52;;;0.30;;
57047;SDS011;42934;54.294;18.598;2022-07-29T12:27:58;2.00;;;0.50;;
57047;SDS011;42934;54.294;18.598;2022-07-29T12:30:38;6.10;;;0.60;;
57047;SDS011;42934;54.294;18.598;2022-07-29T12:33:11;0.88;;;0.40;;
57047;SDS011;42934;54.294;18.598;2022-07-29T12:35:42;0.40;;;0.40;;
57047;SDS011;42934;54.294;18.598;2022-07-29T12:38:32;3.28;;;0.50;;
57047;SDS011;42934;54.294;18.598;2022-07-29T12:41:02;1.10;;;0.35;;
57047;SDS011;42934;54.294;18.598;2022-07-29T12:43:32;0.40;;;0.30;;
57047;SDS011;42934;54.294;18.598;2022-07-29T12:46:12;1.85;;;0.40;;
57047;SDS011;42934;54.294;18.598;2022-07-29T12:48:43;2.15;;;0.50;;
57047;SDS011;42934;54.294;18.598;2022-07-29T12:51:15;4.07;;;0.50;;
57047;SDS011;42934;54.294;18.598;2022-07-29T12:54:01;1.08;;;0.40;;
57047;SDS011;42934;54.294;18.598;2022-07-29T12:56:33;3.13;;;0.40;;
57047;SDS011;42934;54.294;18.598;2022-07-29T12:59:12;2.78;;;0.40;;
57047;SDS011;42934;54.294;18.598;2022-07-29T13:01:44;0.30;;;0.30;;
57047;SDS011;42934;54.294;18.598;2022-07-29T13:04:25;0.47;;;0.30;;
57047;SDS011;42934;54.294;18.598;2022-07-29T13:06:59;5.22;;;0.50;;
57047;SDS011;42934;54.294;18.598;2022-07-29T13:09:36;2.88;;;0.70;;
57047;SDS011;42934;54.294;18.598;2022-07-29T13:12:07;0.90;;;0.43;;
57047;SDS011;42934;54.294;18.598;2022-07-29T13:14:38;0.98;;;0.35;;
57047;SDS011;42934;54.294;18.598;2022-07-29T13:17:11;0.70;;;0.40;;
57047;SDS011;42934;54.294;18.598;2022-07-29T13:19:47;4.20;;;0.40;;
57047;SDS011;42934;54.294;18.598;2022-07-29T13:22:19;1.00;;;0.40;;
57047;SDS011;42934;54.294;18.598;2022-07-29T13:24:53;3.90;;;0.57;;
57047;SDS011;42934;54.294;18.598;2022-07-29T13:27:25;0.95;;;0.40;;
57047;SDS011;42934;54.294;18.598;2022-07-29T13:30:16;3.70;;;0.90;;
57047;SDS011;42934;54.294;18.598;2022-07-29T13:32:47;0.40;;;0.30;;
57047;SDS011;42934;54.294;18.598;2022-07-29T13:35:17;1.75;;;0.30;;
57047;SDS011;42934;54.294;18.598;2022-07-29T13:37:46;0.60;;;0.40;;
57047;SDS011;42934;54.294;18.598;2022-07-29T13:40:18;1.90;;;0.55;;
57047;SDS011;42934;54.294;18.598;2022-07-29T13:42:47;2.10;;;0.57;;
57047;SDS011;42934;54.294;18.598;2022-07-29T13:45:17;1.15;;;0.30;;
57047;SDS011;42934;54.294;18.598;2022-07-29T13:47:48;5.40;;;0.60;;
57047;SDS011;42934;54.294;18.598;2022-07-29T13:50:17;3.00;;;0.60;;
57047;SDS011;42934;54.294;18.598;2022-07-29T13:53:13;2.70;;;0.55;;
57047;SDS011;42934;54.294;18.598;2022-07-29T13:56:05;6.65;;;0.50;;
57047;SDS011;42934;54.294;18.598;2022-07-29T13:58:35;2.88;;;0.60;;
57047;SDS011;42934;54.294;18.598;2022-07-29T14:01:04;4.88;;;0.80;;
57047;SDS011;42934;54.294;18.598;2022-07-29T14:03:44;3.03;;;0.50;;
57047;SDS011;42934;54.294;18.598;2022-07-29T14:06:13;4.50;;;0.52;;
57047;SDS011;42934;54.294;18.598;2022-07-29T14:08:46;2.03;;;0.57;;
57047;SDS011;42934;54.294;18.598;2022-07-29T14:11:17;3.17;;;0.50;;
57047;SDS011;42934;54.294;18.598;2022-07-29T14:13:47;2.30;;;0.52;;
57047;SDS011;42934;54.294;18.598;2022-07-29T14:16:17;2.65;;;0.70;;
57047;SDS011;42934;54.294;18.598;2022-07-29T14:18:47;2.97;;;0.80;;
57047;SDS011;42934;54.294;18.598;2022-07-29T14:21:17;0.85;;;0.50;;
57047;SDS011;42934;54.294;18.598;2022-07-29T14:23:46;1.27;;;0.50;;
57047;SDS011;42934;54.294;18.598;2022-07-29T14:26:22;1.35;;;0.50;;
57047;SDS011;42934;54.294;18.598;2022-07-29T14:28:53;0.90;;;0.50;;
57047;SDS011;42934;54.294;18.598;2022-07-29T14:31:22;3.80;;;0.60;;
57047;SDS011;42934;54.294;18.598;2022-07-29T14:33:53;4.25;;;0.60;;
57047;SDS011;42934;54.294;18.598;2022-07-29T14:36:28;1.95;;;0.50;;
57047;SDS011;42934;54.294;18.598;2022-07-29T14:38:58;7.15;;;0.47;;
57047;SDS011;42934;54.294;18.598;2022-07-29T14:41:27;0.45;;;0.43;;
57047;SDS011;42934;54.294;18.598;2022-07-29T14:43:56;4.53;;;0.70;;
57047;SDS011;42934;54.294;18.598;2022-07-29T14:46:27;1.00;;;0.40;;
57047;SDS011;42934;54.294;18.598;2022-07-29T14:48:58;3.13;;;0.50;;
57047;SDS011;42934;54.294;18.598;2022-07-29T14:51:28;2.72;;;0.57;;
57047;SDS011;42934;54.294;18.598;2022-07-29T14:53:58;0.45;;;0.32;;
57047;SDS011;42934;54.294;18.598;2022-07-29T14:56:27;3.97;;;0.50;;
57047;SDS011;42934;54.294;18.598;2022-07-29T14:59:03;1.77;;;0.40;;
57047;SDS011;42934;54.294;18.598;2022-07-29T15:01:33;3.80;;;0.50;;
57047;SDS011;42934;54.294;18.598;2022-07-29T15:06:33;0.85;;;0.50;;
57047;SDS011;42934;54.294;18.598;2022-07-29T15:09:03;2.38;;;0.40;;
57047;SDS011;42934;54.294;18.598;2022-07-29T15:11:32;3.75;;;0.47;;
57047;SDS011;42934;54.294;18.598;2022-07-29T15:14:04;1.00;;;0.50;;
57047;SDS011;42934;54.294;18.598;2022-07-29T15:16:35;1.02;;;0.47;;
57047;SDS011;42934;54.294;18.598;2022-07-29T15:19:10;1.90;;;0.52;;
57047;SDS011;42934;54.294;18.598;2022-07-29T15:21:39;0.90;;;0.40;;
57047;SDS011;42934;54.294;18.598;2022-07-29T15:24:14;2.20;;;0.45;;
57047;SDS011;42934;54.294;18.598;2022-07-29T15:26:44;0.60;;;0.50;;
57047;SDS011;42934;54.294;18.598;2022-07-29T15:29:14;3.42;;;0.57;;
57047;SDS011;42934;54.294;18.598;2022-07-29T15:31:44;2.40;;;0.60;;
57047;SDS011;42934;54.294;18.598;2022-07-29T15:34:15;2.88;;;0.57;;
57047;SDS011;42934;54.294;18.598;2022-07-29T15:36:47;1.00;;;0.40;;
57047;SDS011;42934;54.294;18.598;2022-07-29T15:39:19;1.70;;;0.40;;
57047;SDS011;42934;54.294;18.598;2022-07-29T15:41:49;8.10;;;0.40;;
57047;SDS011;42934;54.294;18.598;2022-07-29T15:44:18;5.70;;;0.50;;
57047;SDS011;42934;54.294;18.598;2022-07-29T15:46:48;4.47;;;0.60;;
57047;SDS011;42934;54.294;18.598;2022-07-29T15:49:35;8.65;;;0.70;;
57047;SDS011;42934;54.294;18.598;2022-07-29T15:52:15;1.10;;;0.30;;
57047;SDS011;42934;54.294;18.598;2022-07-29T15:54:52;1.75;;;0.43;;
57047;SDS011;42934;54.294;18.598;2022-07-29T15:57:23;1.30;;;0.40;;
57047;SDS011;42934;54.294;18.598;2022-07-29T15:59:52;0.75;;;0.35;;
57047;SDS011;42934;54.294;18.598;2022-07-29T16:02:22;1.77;;;0.40;;
57047;SDS011;42934;54.294;18.598;2022-07-29T16:04:52;0.70;;;0.35;;
57047;SDS011;42934;54.294;18.598;2022-07-29T16:07:22;1.42;;;0.40;;